sensor_id;sensor_type;location;lat;lon;timestamp;P1;durP1;ratioP1;P2;durP2;ratioP2
28245;SDS011;15510;52.512;13.300;2023-05-07T00:02:21;14.30;;;10.47;;
28245;SDS011;15510;52.512;13.300;2023-05-07T00:04:53;11.43;;;9.97;;
28245;SDS011;15510;52.512;13.300;2023-05-07T00:07:19;13.43;;;9.47;;
28245;SDS011;15510;52.512;13.300;2023-05-07T00:09:45;11.23;;;10.07;;
28245;SDS011;15510;52.512;13.300;2023-05-07T00:12:10;10.90;;;9.63;;
28245;SDS011;15510;52.512;13.300;2023-05-07T00:14:39;11.60;;;8.80;;
28245;SDS011;15510;52.512;13.300;2023-05-07T00:17:06;13.80;;;9.57;;
28245;SDS011;15510;52.512;13.300;2023-05-07T00:19:34;12.93;;;9.43;;
28245;SDS011;15510;52.512;13.300;2023-05-07T00:22:02;10.00;;;8.27;;
28245;SDS011;15510;52.512;13.300;2023-05-07T00:24:28;11.00;;;8.77;;
28245;SDS011;15510;52.512;13.300;2023-05-07T00:26:54;12.60;;;8.80;;
28245;SDS011;15510;52.512;13.300;2023-05-07T00:29:23;9.00;;;7.83;;
28245;SDS011;15510;52.512;13.300;2023-05-07T00:31:50;10.20;;;9.10;;
28245;SDS011;15510;52.512;13.300;2023-05-07T00:34:16;12.07;;;8.70;;
28245;SDS011;15510;52.512;13.300;2023-05-07T00:36:42;10.83;;;8.40;;
28245;SDS011;15510;52.512;13.300;2023-05-07T00:39:12;12.17;;;8.20;;
28245;SDS011;15510;52.512;13.300;2023-05-07T00:41:40;8.53;;;7.73;;
28245;SDS011;15510;52.512;13.300;2023-05-07T00:44:09;11.17;;;9.30;;
28245;SDS011;15510;52.512;13.300;2023-05-07T00:46:35;9.53;;;8.20;;
28245;SDS011;15510;52.512;13.300;2023-05-07T00:49:04;12.60;;;8.17;;
28245;SDS011;15510;52.512;13.300;2023-05-07T00:51:32;9.20;;;8.27;;
28245;SDS011;15510;52.512;13.300;2023-05-07T00:54:01;9.27;;;7.90;;
28245;SDS011;15510;52.512;13.300;2023-05-07T00:56:28;9.60;;;8.60;;
28245;SDS011;15510;52.512;13.300;2023-05-07T00:58:56;9.10;;;8.20;;
28245;SDS011;15510;52.512;13.300;2023-05-07T01:01:22;9.73;;;7.57;;
28245;SDS011;15510;52.512;13.300;2023-05-07T01:03:48;8.67;;;7.77;;
28245;SDS011;15510;52.512;13.300;2023-05-07T01:06:17;9.30;;;7.60;;
28245;SDS011;15510;52.512;13.300;2023-05-07T01:08:44;11.87;;;7.83;;
28245;SDS011;15510;52.512;13.300;2023-05-07T01:11:18;8.53;;;7.60;;
28245;SDS011;15510;52.512;13.300;2023-05-07T01:13:49;9.67;;;7.90;;
28245;SDS011;15510;52.512;13.300;2023-05-07T01:16:22;9.83;;;7.97;;
28245;SDS011;15510;52.512;13.300;2023-05-07T01:18:48;8.93;;;7.50;;
28245;SDS011;15510;52.512;13.300;2023-05-07T01:21:24;8.40;;;7.53;;
28245;SDS011;15510;52.512;13.300;2023-05-07T01:23:57;9.30;;;8.30;;
28245;SDS011;15510;52.512;13.300;2023-05-07T01:26:33;10.03;;;7.93;;
28245;SDS011;15510;52.512;13.300;2023-05-07T01:29:02;7.73;;;7.03;;
28245;SDS011;15510;52.512;13.300;2023-05-07T01:31:44;8.60;;;7.20;;
28245;SDS011;15510;52.512;13.300;2023-05-07T01:34:13;8.10;;;7.30;;
28245;SDS011;15510;52.512;13.300;2023-05-07T01:36:42;7.57;;;6.87;;
28245;SDS011;15510;52.512;13.300;2023-05-07T01:39:18;10.00;;;6.27;;
28245;SDS011;15510;52.512;13.300;2023-05-07T01:41:50;9.20;;;7.37;;
28245;SDS011;15510;52.512;13.300;2023-05-07T01:44:17;8.10;;;7.30;;
28245;SDS011;15510;52.512;13.300;2023-05-07T01:46:46;9.17;;;7.07;;
28245;SDS011;15510;52.512;13.300;2023-05-07T01:49:14;10.23;;;7.73;;
28245;SDS011;15510;52.512;13.300;2023-05-07T01:51:42;11.30;;;7.87;;
28245;SDS011;15510;52.512;13.300;2023-05-07T01:54:13;7.73;;;6.93;;
28245;SDS011;15510;52.512;13.300;2023-05-07T01:56:40;7.90;;;7.10;;
28245;SDS011;15510;52.512;13.300;2023-05-07T01:59:11;8.83;;;7.40;;
28245;SDS011;15510;52.512;13.300;2023-05-07T02:01:39;8.57;;;7.67;;
28245;SDS011;15510;52.512;13.300;2023-05-07T02:04:04;8.50;;;7.23;;
28245;SDS011;15510;52.512;13.300;2023-05-07T02:06:33;7.40;;;6.70;;
28245;SDS011;15510;52.512;13.300;2023-05-07T02:09:06;8.67;;;7.83;;
28245;SDS011;15510;52.512;13.300;2023-05-07T02:11:41;9.97;;;7.27;;
28245;SDS011;15510;52.512;13.300;2023-05-07T02:14:10;8.50;;;7.20;;
28245;SDS011;15510;52.512;13.300;2023-05-07T02:16:39;11.60;;;9.53;;
28245;SDS011;15510;52.512;13.300;2023-05-07T02:19:12;9.47;;;8.50;;
28245;SDS011;15510;52.512;13.300;2023-05-07T02:21:45;11.27;;;7.87;;
28245;SDS011;15510;52.512;13.300;2023-05-07T02:24:17;11.83;;;9.53;;
28245;SDS011;15510;52.512;13.300;2023-05-07T02:26:43;10.33;;;8.57;;
28245;SDS011;15510;52.512;13.300;2023-05-07T02:29:09;9.30;;;8.17;;
28245;SDS011;15510;52.512;13.300;2023-05-07T02:31:37;9.60;;;8.07;;
28245;SDS011;15510;52.512;13.300;2023-05-07T02:34:03;10.33;;;8.60;;
28245;SDS011;15510;52.512;13.300;2023-05-07T02:36:29;13.13;;;10.37;;
28245;SDS011;15510;52.512;13.300;2023-05-07T02:39:03;28.70;;;16.83;;
28245;SDS011;15510;52.512;13.300;2023-05-07T02:41:29;9.80;;;8.73;;
28245;SDS011;15510;52.512;13.300;2023-05-07T02:43:55;8.83;;;7.93;;
28245;SDS011;15510;52.512;13.300;2023-05-07T02:46:21;12.83;;;8.70;;
28245;SDS011;15510;52.512;13.300;2023-05-07T02:48:58;11.40;;;8.20;;
28245;SDS011;15510;52.512;13.300;2023-05-07T02:51:25;9.73;;;8.73;;
28245;SDS011;15510;52.512;13.300;2023-05-07T02:53:54;8.70;;;7.73;;
28245;SDS011;15510;52.512;13.300;2023-05-07T02:56:21;8.83;;;7.93;;
28245;SDS011;15510;52.512;13.300;2023-05-07T02:58:47;10.50;;;8.77;;
28245;SDS011;15510;52.512;13.300;2023-05-07T03:01:15;9.00;;;8.07;;
28245;SDS011;15510;52.512;13.300;2023-05-07T03:03:49;9.93;;;8.07;;
28245;SDS011;15510;52.512;13.300;2023-05-07T03:06:18;12.63;;;7.40;;
28245;SDS011;15510;52.512;13.300;2023-05-07T03:08:50;11.07;;;7.93;;
28245;SDS011;15510;52.512;13.300;2023-05-07T03:11:21;8.10;;;7.30;;
28245;SDS011;15510;52.512;13.300;2023-05-07T03:13:48;9.23;;;8.23;;
28245;SDS011;15510;52.512;13.300;2023-05-07T03:16:19;9.77;;;7.13;;
28245;SDS011;15510;52.512;13.300;2023-05-07T03:18:55;8.50;;;6.97;;
28245;SDS011;15510;52.512;13.300;2023-05-07T03:21:23;8.87;;;6.93;;
28245;SDS011;15510;52.512;13.300;2023-05-07T03:23:54;8.70;;;7.70;;
28245;SDS011;15510;52.512;13.300;2023-05-07T03:26:23;7.73;;;6.93;;
28245;SDS011;15510;52.512;13.300;2023-05-07T03:28:49;7.73;;;6.80;;
28245;SDS011;15510;52.512;13.300;2023-05-07T03:31:25;8.47;;;6.90;;
28245;SDS011;15510;52.512;13.300;2023-05-07T03:33:56;9.43;;;7.33;;
28245;SDS011;15510;52.512;13.300;2023-05-07T03:36:27;7.47;;;6.77;;
28245;SDS011;15510;52.512;13.300;2023-05-07T03:38:59;7.97;;;6.43;;
28245;SDS011;15510;52.512;13.300;2023-05-07T03:41:43;7.80;;;7.00;;
28245;SDS011;15510;52.512;13.300;2023-05-07T03:44:11;7.30;;;6.60;;
28245;SDS011;15510;52.512;13.300;2023-05-07T03:46:41;12.87;;;7.37;;
28245;SDS011;15510;52.512;13.300;2023-05-07T03:49:09;11.13;;;7.03;;
28245;SDS011;15510;52.512;13.300;2023-05-07T03:51:35;8.73;;;7.20;;
28245;SDS011;15510;52.512;13.300;2023-05-07T03:54:06;7.83;;;6.90;;
28245;SDS011;15510;52.512;13.300;2023-05-07T03:56:42;9.93;;;6.77;;
28245;SDS011;15510;52.512;13.300;2023-05-07T03:59:08;11.70;;;7.33;;
28245;SDS011;15510;52.512;13.300;2023-05-07T04:01:34;7.17;;;6.40;;
28245;SDS011;15510;52.512;13.300;2023-05-07T04:04:00;8.97;;;5.93;;
28245;SDS011;15510;52.512;13.300;2023-05-07T04:06:27;10.03;;;6.90;;
28245;SDS011;15510;52.512;13.300;2023-05-07T04:08:53;7.27;;;6.57;;
28245;SDS011;15510;52.512;13.300;2023-05-07T04:11:26;7.50;;;6.70;;
28245;SDS011;15510;52.512;13.300;2023-05-07T04:13:55;7.60;;;6.90;;
28245;SDS011;15510;52.512;13.300;2023-05-07T04:16:23;8.00;;;6.63;;
28245;SDS011;15510;52.512;13.300;2023-05-07T04:18:49;7.70;;;6.90;;
28245;SDS011;15510;52.512;13.300;2023-05-07T04:21:18;9.30;;;6.83;;
28245;SDS011;15510;52.512;13.300;2023-05-07T04:23:50;8.27;;;6.70;;
28245;SDS011;15510;52.512;13.300;2023-05-07T04:26:21;6.53;;;5.93;;
28245;SDS011;15510;52.512;13.300;2023-05-07T04:28:50;7.67;;;6.70;;
28245;SDS011;15510;52.512;13.300;2023-05-07T04:31:17;7.07;;;6.47;;
28245;SDS011;15510;52.512;13.300;2023-05-07T04:33:46;7.80;;;6.87;;
28245;SDS011;15510;52.512;13.300;2023-05-07T04:36:13;7.43;;;6.50;;
28245;SDS011;15510;52.512;13.300;2023-05-07T04:38:48;7.43;;;6.57;;
28245;SDS011;15510;52.512;13.300;2023-05-07T04:41:18;6.97;;;6.23;;
28245;SDS011;15510;52.512;13.300;2023-05-07T04:43:51;7.67;;;6.27;;
28245;SDS011;15510;52.512;13.300;2023-05-07T04:46:20;6.17;;;5.57;;
28245;SDS011;15510;52.512;13.300;2023-05-07T04:48:51;5.73;;;5.23;;
28245;SDS011;15510;52.512;13.300;2023-05-07T04:51:19;6.57;;;5.20;;
28245;SDS011;15510;52.512;13.300;2023-05-07T04:53:49;6.93;;;5.03;;
28245;SDS011;15510;52.512;13.300;2023-05-07T04:56:20;6.57;;;5.50;;
28245;SDS011;15510;52.512;13.300;2023-05-07T04:58:46;5.47;;;5.00;;
28245;SDS011;15510;52.512;13.300;2023-05-07T05:01:18;6.60;;;5.27;;
28245;SDS011;15510;52.512;13.300;2023-05-07T05:03:44;7.53;;;5.03;;
28245;SDS011;15510;52.512;13.300;2023-05-07T05:06:10;5.80;;;5.17;;
28245;SDS011;15510;52.512;13.300;2023-05-07T05:08:38;5.67;;;5.17;;
28245;SDS011;15510;52.512;13.300;2023-05-07T05:11:04;5.10;;;4.60;;
28245;SDS011;15510;52.512;13.300;2023-05-07T05:13:35;5.57;;;4.87;;
28245;SDS011;15510;52.512;13.300;2023-05-07T05:16:08;5.70;;;4.80;;
28245;SDS011;15510;52.512;13.300;2023-05-07T05:18:38;5.10;;;4.03;;
28245;SDS011;15510;52.512;13.300;2023-05-07T05:21:04;5.90;;;4.97;;
28245;SDS011;15510;52.512;13.300;2023-05-07T05:23:31;5.40;;;4.90;;
28245;SDS011;15510;52.512;13.300;2023-05-07T05:25:58;7.17;;;4.93;;
28245;SDS011;15510;52.512;13.300;2023-05-07T05:28:26;7.10;;;5.17;;
28245;SDS011;15510;52.512;13.300;2023-05-07T05:30:53;5.03;;;4.53;;
28245;SDS011;15510;52.512;13.300;2023-05-07T05:33:20;4.63;;;4.23;;
28245;SDS011;15510;52.512;13.300;2023-05-07T05:35:49;4.87;;;4.40;;
28245;SDS011;15510;52.512;13.300;2023-05-07T05:38:15;5.13;;;4.67;;
28245;SDS011;15510;52.512;13.300;2023-05-07T05:40:42;4.83;;;4.33;;
28245;SDS011;15510;52.512;13.300;2023-05-07T05:43:10;5.10;;;4.60;;
28245;SDS011;15510;52.512;13.300;2023-05-07T05:45:37;6.63;;;4.47;;
28245;SDS011;15510;52.512;13.300;2023-05-07T05:48:04;5.07;;;4.60;;
28245;SDS011;15510;52.512;13.300;2023-05-07T05:50:30;5.40;;;4.77;;
28245;SDS011;15510;52.512;13.300;2023-05-07T05:52:58;4.60;;;4.20;;
28245;SDS011;15510;52.512;13.300;2023-05-07T05:55:26;8.70;;;4.73;;
28245;SDS011;15510;52.512;13.300;2023-05-07T05:57:52;5.27;;;4.57;;
28245;SDS011;15510;52.512;13.300;2023-05-07T06:00:19;5.93;;;4.57;;
28245;SDS011;15510;52.512;13.300;2023-05-07T06:02:54;5.30;;;4.77;;
28245;SDS011;15510;52.512;13.300;2023-05-07T06:05:23;5.43;;;4.93;;
28245;SDS011;15510;52.512;13.300;2023-05-07T06:07:51;5.23;;;4.40;;
28245;SDS011;15510;52.512;13.300;2023-05-07T06:10:17;5.87;;;4.20;;
28245;SDS011;15510;52.512;13.300;2023-05-07T06:12:44;5.07;;;4.13;;
28245;SDS011;15510;52.512;13.300;2023-05-07T06:15:10;6.17;;;4.43;;
28245;SDS011;15510;52.512;13.300;2023-05-07T06:17:37;5.90;;;4.60;;
28245;SDS011;15510;52.512;13.300;2023-05-07T06:20:03;6.73;;;5.73;;
28245;SDS011;15510;52.512;13.300;2023-05-07T06:22:29;5.37;;;4.87;;
28245;SDS011;15510;52.512;13.300;2023-05-07T06:24:55;6.47;;;5.03;;
28245;SDS011;15510;52.512;13.300;2023-05-07T06:27:21;8.83;;;5.60;;
28245;SDS011;15510;52.512;13.300;2023-05-07T06:29:48;5.50;;;5.00;;
28245;SDS011;15510;52.512;13.300;2023-05-07T06:32:16;6.50;;;5.07;;
28245;SDS011;15510;52.512;13.300;2023-05-07T06:34:43;6.90;;;5.50;;
28245;SDS011;15510;52.512;13.300;2023-05-07T06:37:09;6.47;;;5.50;;
28245;SDS011;15510;52.512;13.300;2023-05-07T06:39:56;5.40;;;4.70;;
28245;SDS011;15510;52.512;13.300;2023-05-07T06:42:22;5.30;;;4.60;;
28245;SDS011;15510;52.512;13.300;2023-05-07T06:44:49;5.77;;;4.67;;
28245;SDS011;15510;52.512;13.300;2023-05-07T06:47:16;5.77;;;5.17;;
28245;SDS011;15510;52.512;13.300;2023-05-07T06:49:45;5.60;;;4.80;;
28245;SDS011;15510;52.512;13.300;2023-05-07T06:52:14;7.20;;;5.20;;
28245;SDS011;15510;52.512;13.300;2023-05-07T06:54:41;7.63;;;5.40;;
28245;SDS011;15510;52.512;13.300;2023-05-07T06:57:11;5.97;;;4.90;;
28245;SDS011;15510;52.512;13.300;2023-05-07T06:59:36;5.60;;;5.10;;
28245;SDS011;15510;52.512;13.300;2023-05-07T07:02:02;6.50;;;4.73;;
28245;SDS011;15510;52.512;13.300;2023-05-07T07:04:29;6.23;;;4.73;;
28245;SDS011;15510;52.512;13.300;2023-05-07T07:07:01;6.43;;;4.70;;
28245;SDS011;15510;52.512;13.300;2023-05-07T07:09:28;5.50;;;4.70;;
28245;SDS011;15510;52.512;13.300;2023-05-07T07:11:54;5.60;;;4.60;;
28245;SDS011;15510;52.512;13.300;2023-05-07T07:14:20;6.87;;;5.10;;
28245;SDS011;15510;52.512;13.300;2023-05-07T07:16:49;5.50;;;4.70;;
28245;SDS011;15510;52.512;13.300;2023-05-07T07:19:20;5.10;;;4.60;;
28245;SDS011;15510;52.512;13.300;2023-05-07T07:21:50;4.67;;;4.10;;
28245;SDS011;15510;52.512;13.300;2023-05-07T07:24:16;5.33;;;4.33;;
28245;SDS011;15510;52.512;13.300;2023-05-07T07:26:47;5.17;;;4.10;;
28245;SDS011;15510;52.512;13.300;2023-05-07T07:29:20;5.13;;;4.10;;
28245;SDS011;15510;52.512;13.300;2023-05-07T07:31:47;6.43;;;4.37;;
28245;SDS011;15510;52.512;13.300;2023-05-07T07:34:17;7.70;;;4.30;;
28245;SDS011;15510;52.512;13.300;2023-05-07T07:36:46;4.23;;;3.83;;
28245;SDS011;15510;52.512;13.300;2023-05-07T07:39:17;3.97;;;3.67;;
28245;SDS011;15510;52.512;13.300;2023-05-07T07:41:44;5.03;;;3.70;;
28245;SDS011;15510;52.512;13.300;2023-05-07T07:44:13;4.10;;;3.50;;
28245;SDS011;15510;52.512;13.300;2023-05-07T07:46:40;4.33;;;3.93;;
28245;SDS011;15510;52.512;13.300;2023-05-07T07:49:08;4.40;;;4.00;;
28245;SDS011;15510;52.512;13.300;2023-05-07T07:51:34;5.10;;;3.70;;
28245;SDS011;15510;52.512;13.300;2023-05-07T07:54:00;4.97;;;3.87;;
28245;SDS011;15510;52.512;13.300;2023-05-07T07:56:29;5.97;;;3.43;;
28245;SDS011;15510;52.512;13.300;2023-05-07T07:58:56;4.07;;;3.33;;
28245;SDS011;15510;52.512;13.300;2023-05-07T08:01:22;3.40;;;3.10;;
28245;SDS011;15510;52.512;13.300;2023-05-07T08:03:48;4.43;;;3.03;;
28245;SDS011;15510;52.512;13.300;2023-05-07T08:06:15;3.30;;;2.70;;
28245;SDS011;15510;52.512;13.300;2023-05-07T08:08:41;3.40;;;3.00;;
28245;SDS011;15510;52.512;13.300;2023-05-07T08:11:07;3.33;;;3.03;;
28245;SDS011;15510;52.512;13.300;2023-05-07T08:13:35;4.73;;;3.20;;
28245;SDS011;15510;52.512;13.300;2023-05-07T08:16:01;3.10;;;2.77;;
28245;SDS011;15510;52.512;13.300;2023-05-07T08:18:28;2.80;;;2.60;;
28245;SDS011;15510;52.512;13.300;2023-05-07T08:20:56;3.10;;;2.50;;
28245;SDS011;15510;52.512;13.300;2023-05-07T08:23:24;2.63;;;2.43;;
28245;SDS011;15510;52.512;13.300;2023-05-07T08:25:50;4.13;;;2.97;;
28245;SDS011;15510;52.512;13.300;2023-05-07T08:28:19;3.23;;;2.93;;
28245;SDS011;15510;52.512;13.300;2023-05-07T08:30:52;4.45;;;3.50;;
28245;SDS011;15510;52.512;13.300;2023-05-07T08:33:19;2.93;;;2.73;;
28245;SDS011;15510;52.512;13.300;2023-05-07T08:35:45;3.00;;;2.70;;
28245;SDS011;15510;52.512;13.300;2023-05-07T08:38:12;3.77;;;2.20;;
28245;SDS011;15510;52.512;13.300;2023-05-07T08:40:39;2.60;;;2.40;;
28245;SDS011;15510;52.512;13.300;2023-05-07T08:43:13;2.72;;;2.40;;
28245;SDS011;15510;52.512;13.300;2023-05-07T08:45:41;2.97;;;2.38;;
28245;SDS011;15510;52.512;13.300;2023-05-07T08:48:16;2.38;;;2.17;;
28245;SDS011;15510;52.512;13.300;2023-05-07T08:50:48;3.00;;;2.70;;
28245;SDS011;15510;52.512;13.300;2023-05-07T08:53:15;7.32;;;2.47;;
28245;SDS011;15510;52.512;13.300;2023-05-07T08:55:42;2.28;;;2.08;;
28245;SDS011;15510;52.512;13.300;2023-05-07T08:58:08;4.18;;;2.55;;
28245;SDS011;15510;52.512;13.300;2023-05-07T09:03:34;2.40;;;2.20;;
28245;SDS011;15510;52.512;13.300;2023-05-07T09:06:00;2.53;;;2.00;;
28245;SDS011;15510;52.512;13.300;2023-05-07T09:08:27;2.70;;;2.35;;
28245;SDS011;15510;52.512;13.300;2023-05-07T09:10:56;2.30;;;2.10;;
28245;SDS011;15510;52.512;13.300;2023-05-07T09:13:27;3.40;;;2.42;;
28245;SDS011;15510;52.512;13.300;2023-05-07T09:16:11;3.72;;;3.08;;
28245;SDS011;15510;52.512;13.300;2023-05-07T09:18:42;3.10;;;2.13;;
28245;SDS011;15510;52.512;13.300;2023-05-07T09:21:11;3.03;;;2.30;;
28245;SDS011;15510;52.512;13.300;2023-05-07T09:23:41;3.20;;;2.20;;
28245;SDS011;15510;52.512;13.300;2023-05-07T09:26:07;3.03;;;2.10;;
28245;SDS011;15510;52.512;13.300;2023-05-07T09:28:38;3.33;;;2.40;;
28245;SDS011;15510;52.512;13.300;2023-05-07T09:31:08;3.92;;;2.33;;
28245;SDS011;15510;52.512;13.300;2023-05-07T09:33:35;3.42;;;2.28;;
28245;SDS011;15510;52.512;13.300;2023-05-07T09:36:06;2.67;;;2.25;;
28245;SDS011;15510;52.512;13.300;2023-05-07T09:38:34;3.05;;;2.38;;
28245;SDS011;15510;52.512;13.300;2023-05-07T09:41:02;4.25;;;2.30;;
28245;SDS011;15510;52.512;13.300;2023-05-07T09:43:39;2.67;;;2.13;;
28245;SDS011;15510;52.512;13.300;2023-05-07T09:46:10;4.57;;;2.40;;
28245;SDS011;15510;52.512;13.300;2023-05-07T09:48:46;2.33;;;2.10;;
28245;SDS011;15510;52.512;13.300;2023-05-07T09:51:18;4.90;;;1.95;;
28245;SDS011;15510;52.512;13.300;2023-05-07T09:54:02;2.53;;;2.28;;
28245;SDS011;15510;52.512;13.300;2023-05-07T09:56:32;4.60;;;1.85;;
28245;SDS011;15510;52.512;13.300;2023-05-07T09:59:00;2.83;;;1.85;;
28245;SDS011;15510;52.512;13.300;2023-05-07T10:01:30;2.75;;;1.88;;
28245;SDS011;15510;52.512;13.300;2023-05-07T10:03:57;3.08;;;1.98;;
28245;SDS011;15510;52.512;13.300;2023-05-07T10:06:24;53.90;;;5.65;;
28245;SDS011;15510;52.512;13.300;2023-05-07T10:08:51;3.08;;;1.67;;
28245;SDS011;15510;52.512;13.300;2023-05-07T10:11:18;2.00;;;1.60;;
28245;SDS011;15510;52.512;13.300;2023-05-07T10:13:45;2.88;;;1.85;;
28245;SDS011;15510;52.512;13.300;2023-05-07T10:16:13;4.18;;;2.10;;
28245;SDS011;15510;52.512;13.300;2023-05-07T10:18:43;2.10;;;1.77;;
28245;SDS011;15510;52.512;13.300;2023-05-07T10:21:17;3.45;;;1.65;;
28245;SDS011;15510;52.512;13.300;2023-05-07T10:23:49;2.72;;;1.98;;
28245;SDS011;15510;52.512;13.300;2023-05-07T10:26:22;2.08;;;1.70;;
28245;SDS011;15510;52.512;13.300;2023-05-07T10:28:51;2.45;;;1.70;;
28245;SDS011;15510;52.512;13.300;2023-05-07T10:31:48;1.90;;;1.67;;
28245;SDS011;15510;52.512;13.300;2023-05-07T10:34:18;3.35;;;2.08;;
28245;SDS011;15510;52.512;13.300;2023-05-07T10:36:52;2.03;;;1.20;;
28245;SDS011;15510;52.512;13.300;2023-05-07T10:39:22;2.40;;;1.90;;
28245;SDS011;15510;52.512;13.300;2023-05-07T10:41:49;2.97;;;1.20;;
28245;SDS011;15510;52.512;13.300;2023-05-07T10:44:24;1.45;;;1.30;;
28245;SDS011;15510;52.512;13.300;2023-05-07T10:47:04;2.30;;;1.40;;
28245;SDS011;15510;52.512;13.300;2023-05-07T10:49:31;1.90;;;1.08;;
28245;SDS011;15510;52.512;13.300;2023-05-07T10:54:45;2.10;;;1.20;;
28245;SDS011;15510;52.512;13.300;2023-05-07T11:05:30;1.20;;;0.88;;
28245;SDS011;15510;52.512;13.300;2023-05-07T11:08:23;1.75;;;1.45;;
28245;SDS011;15510;52.512;13.300;2023-05-07T11:10:56;2.53;;;1.10;;
28245;SDS011;15510;52.512;13.300;2023-05-07T11:13:42;4.18;;;0.93;;
28245;SDS011;15510;52.512;13.300;2023-05-07T11:16:30;0.90;;;0.80;;
28245;SDS011;15510;52.512;13.300;2023-05-07T11:19:14;1.20;;;0.93;;
28245;SDS011;15510;52.512;13.300;2023-05-07T11:21:44;0.70;;;0.70;;
28245;SDS011;15510;52.512;13.300;2023-05-07T11:24:26;3.55;;;1.10;;
28245;SDS011;15510;52.512;13.300;2023-05-07T11:26:56;1.48;;;0.95;;
28245;SDS011;15510;52.512;13.300;2023-05-07T11:29:24;1.70;;;0.88;;
28245;SDS011;15510;52.512;13.300;2023-05-07T11:31:55;4.15;;;1.00;;
28245;SDS011;15510;52.512;13.300;2023-05-07T11:34:26;0.85;;;0.85;;
28245;SDS011;15510;52.512;13.300;2023-05-07T11:36:54;1.67;;;0.90;;
28245;SDS011;15510;52.512;13.300;2023-05-07T11:39:31;2.17;;;1.15;;
28245;SDS011;15510;52.512;13.300;2023-05-07T11:41:59;1.05;;;0.60;;
28245;SDS011;15510;52.512;13.300;2023-05-07T11:44:25;1.33;;;0.63;;
28245;SDS011;15510;52.512;13.300;2023-05-07T11:47:04;1.08;;;0.70;;
28245;SDS011;15510;52.512;13.300;2023-05-07T11:49:30;3.72;;;0.80;;
28245;SDS011;15510;52.512;13.300;2023-05-07T11:51:56;2.55;;;0.93;;
28245;SDS011;15510;52.512;13.300;2023-05-07T11:54:22;1.73;;;0.90;;
28245;SDS011;15510;52.512;13.300;2023-05-07T11:56:47;1.80;;;1.17;;
28245;SDS011;15510;52.512;13.300;2023-05-07T11:59:17;0.93;;;0.70;;
28245;SDS011;15510;52.512;13.300;2023-05-07T12:01:45;2.40;;;1.00;;
28245;SDS011;15510;52.512;13.300;2023-05-07T12:04:11;1.55;;;0.80;;
28245;SDS011;15510;52.512;13.300;2023-05-07T12:06:39;1.35;;;1.00;;
28245;SDS011;15510;52.512;13.300;2023-05-07T12:09:05;2.63;;;1.13;;
28245;SDS011;15510;52.512;13.300;2023-05-07T12:11:32;12.48;;;9.30;;
28245;SDS011;15510;52.512;13.300;2023-05-07T12:13:58;4.07;;;0.90;;
28245;SDS011;15510;52.512;13.300;2023-05-07T12:16:24;1.40;;;1.27;;
28245;SDS011;15510;52.512;13.300;2023-05-07T12:18:51;1.33;;;0.70;;
28245;SDS011;15510;52.512;13.300;2023-05-07T12:21:17;1.40;;;0.70;;
28245;SDS011;15510;52.512;13.300;2023-05-07T12:23:43;1.35;;;0.68;;
28245;SDS011;15510;52.512;13.300;2023-05-07T12:26:10;1.48;;;0.63;;
28245;SDS011;15510;52.512;13.300;2023-05-07T12:28:36;3.17;;;0.63;;
28245;SDS011;15510;52.512;13.300;2023-05-07T12:31:08;2.70;;;0.90;;
28245;SDS011;15510;52.512;13.300;2023-05-07T12:33:37;5.75;;;4.97;;
28245;SDS011;15510;52.512;13.300;2023-05-07T12:36:05;0.93;;;0.80;;
28245;SDS011;15510;52.512;13.300;2023-05-07T12:38:38;0.82;;;0.60;;
28245;SDS011;15510;52.512;13.300;2023-05-07T12:41:06;0.95;;;0.60;;
28245;SDS011;15510;52.512;13.300;2023-05-07T12:43:33;1.48;;;0.60;;
28245;SDS011;15510;52.512;13.300;2023-05-07T12:46:00;1.02;;;0.70;;
28245;SDS011;15510;52.512;13.300;2023-05-07T12:48:29;1.15;;;0.85;;
28245;SDS011;15510;52.512;13.300;2023-05-07T12:50:55;1.13;;;0.68;;
28245;SDS011;15510;52.512;13.300;2023-05-07T12:53:26;0.80;;;0.77;;
28245;SDS011;15510;52.512;13.300;2023-05-07T12:55:53;2.38;;;0.60;;
28245;SDS011;15510;52.512;13.300;2023-05-07T12:58:24;1.35;;;0.73;;
28245;SDS011;15510;52.512;13.300;2023-05-07T13:00:50;3.30;;;0.80;;
28245;SDS011;15510;52.512;13.300;2023-05-07T13:03:23;3.17;;;0.77;;
28245;SDS011;15510;52.512;13.300;2023-05-07T13:05:51;1.30;;;0.68;;
28245;SDS011;15510;52.512;13.300;2023-05-07T13:08:25;1.52;;;0.60;;
28245;SDS011;15510;52.512;13.300;2023-05-07T13:10:50;1.27;;;0.55;;
28245;SDS011;15510;52.512;13.300;2023-05-07T13:13:17;1.13;;;0.65;;
28245;SDS011;15510;52.512;13.300;2023-05-07T13:15:43;1.88;;;0.70;;
28245;SDS011;15510;52.512;13.300;2023-05-07T13:18:08;2.40;;;0.60;;
28245;SDS011;15510;52.512;13.300;2023-05-07T13:20:36;3.92;;;0.70;;
28245;SDS011;15510;52.512;13.300;2023-05-07T13:23:02;0.98;;;0.60;;
28245;SDS011;15510;52.512;13.300;2023-05-07T13:25:29;1.17;;;0.55;;
28245;SDS011;15510;52.512;13.300;2023-05-07T13:27:57;1.15;;;0.60;;
28245;SDS011;15510;52.512;13.300;2023-05-07T13:30:23;0.65;;;0.50;;
28245;SDS011;15510;52.512;13.300;2023-05-07T13:32:49;1.35;;;0.55;;
28245;SDS011;15510;52.512;13.300;2023-05-07T13:35:16;2.50;;;0.70;;
28245;SDS011;15510;52.512;13.300;2023-05-07T13:37:42;1.42;;;0.60;;
28245;SDS011;15510;52.512;13.300;2023-05-07T13:40:08;0.55;;;0.40;;
28245;SDS011;15510;52.512;13.300;2023-05-07T13:42:34;2.55;;;0.65;;
28245;SDS011;15510;52.512;13.300;2023-05-07T13:45:00;2.28;;;0.60;;
28245;SDS011;15510;52.512;13.300;2023-05-07T13:47:30;1.10;;;0.50;;
28245;SDS011;15510;52.512;13.300;2023-05-07T13:49:56;0.80;;;0.70;;
28245;SDS011;15510;52.512;13.300;2023-05-07T13:52:22;2.50;;;0.63;;
28245;SDS011;15510;52.512;13.300;2023-05-07T13:54:48;1.25;;;0.73;;
28245;SDS011;15510;52.512;13.300;2023-05-07T13:57:13;1.05;;;0.82;;
28245;SDS011;15510;52.512;13.300;2023-05-07T13:59:40;1.30;;;0.68;;
28245;SDS011;15510;52.512;13.300;2023-05-07T14:02:06;0.80;;;0.80;;
28245;SDS011;15510;52.512;13.300;2023-05-07T14:04:31;1.65;;;0.90;;
28245;SDS011;15510;52.512;13.300;2023-05-07T14:06:57;2.38;;;0.88;;
28245;SDS011;15510;52.512;13.300;2023-05-07T14:09:23;3.80;;;1.00;;
28245;SDS011;15510;52.512;13.300;2023-05-07T14:11:49;2.20;;;0.90;;
28245;SDS011;15510;52.512;13.300;2023-05-07T14:14:17;0.80;;;0.80;;
28245;SDS011;15510;52.512;13.300;2023-05-07T14:16:43;0.80;;;0.63;;
28245;SDS011;15510;52.512;13.300;2023-05-07T14:19:10;0.80;;;0.65;;
28245;SDS011;15510;52.512;13.300;2023-05-07T14:21:36;2.95;;;0.82;;
28245;SDS011;15510;52.512;13.300;2023-05-07T14:24:02;0.60;;;0.50;;
28245;SDS011;15510;52.512;13.300;2023-05-07T14:26:28;1.63;;;1.23;;
28245;SDS011;15510;52.512;13.300;2023-05-07T14:28:56;2.65;;;0.60;;
28245;SDS011;15510;52.512;13.300;2023-05-07T14:31:23;1.08;;;0.70;;
28245;SDS011;15510;52.512;13.300;2023-05-07T14:33:49;3.13;;;0.90;;
28245;SDS011;15510;52.512;13.300;2023-05-07T14:36:16;4.18;;;1.10;;
28245;SDS011;15510;52.512;13.300;2023-05-07T14:38:45;1.17;;;0.70;;
28245;SDS011;15510;52.512;13.300;2023-05-07T14:41:15;0.85;;;0.75;;
28245;SDS011;15510;52.512;13.300;2023-05-07T14:43:42;3.95;;;0.85;;
28245;SDS011;15510;52.512;13.300;2023-05-07T14:46:09;1.00;;;0.88;;
28245;SDS011;15510;52.512;13.300;2023-05-07T14:48:37;3.75;;;0.73;;
28245;SDS011;15510;52.512;13.300;2023-05-07T14:51:03;1.45;;;1.10;;
28245;SDS011;15510;52.512;13.300;2023-05-07T14:53:29;2.50;;;0.93;;
28245;SDS011;15510;52.512;13.300;2023-05-07T14:55:55;1.40;;;0.77;;
28245;SDS011;15510;52.512;13.300;2023-05-07T14:58:20;2.00;;;1.23;;